MOB weather

Mobile Regional Airport
Mobile, Alabama, United States

Public forecast

Using degrees Fahrenheit for public forecast. Weather courtesy of forecast.io.

METAR (pilot weather report)

Retrieved 2019/04/20 19:56 UTC (36 minutes ago):

KMOB 201956Z 31014G22KT 10SM CLR 21/01 A2996 RMK AO2 SLP144 T02110006

TAF (pilot weather forecast)

Retrieved 2019/04/20 18:36 UTC (2 hours ago):

TAF KMOB 201734Z 2018/2118 29013G24KT P6SM SKC FM210000 29002KT P6SM SKC FM211300 21005KT P6SM SKC